Naples, FL (34114)

1:07 PM EST on January 17, 2018 (GMT -0500)
Naples | | Change Station
Active Advisory: Wind Chill Advisory

Elev 26 ft 26.04 °N, 81.66 °W | Updated 18 minutes ago

Clear
Clear
66.2 °F
Feels Like 66.2 °F
N
9.3
Wind Variable Wind from WNW
Gusts 21.7 mph

Today
High -- | Low -- °F
--% Chance of Precip.
Yesterday
High -- | Low -- °F
Precip. -- in
Pressure 30.23 in
Visibility 10.0 miles
Clouds Clear
Dew Point 53 °F
Humidity 63%
Rainfall in
Snow Depth Not available.
7:15 AM 5:58 PM
New Moon, 0% visible
METAR KMKY 171756Z AUTO 31007KT 10SM CLR 21/08 A3023 RMK AO2 SLP237 T02110083 10217 20117 58016
Pressure 30.23 in
Visibility 10.0 miles
Clouds Clear
Dew Point 53 °F
Humidity 63%
Rainfall in
Snow Depth Not available.
7:15 AM 5:58 PM
New Moon, 0% visible
METAR KMKY 171756Z AUTO 31007KT 10SM CLR 21/08 A3023 RMK AO2 SLP237 T02110083 10217 20117 58016

Get Your Daily Forecast Email!

Thanks for signing up!

Be on the lookout for a verification email in your inbox.

You'll start receiving severe weather alerts in your inbox..

×

10-Day Weather Forecast

Almanac

Astronomy

Jan. 17, 2018 Rise Set
Actual Time
Civil Twilight
Nautical Twilight
Astronomical Twilight
Moon
Length of Visible Light
Length of Day
Tomorrow will be .
, % of the Moon is Illuminated

Today's Extremes

State Highs State Lows

Community

WunderPhotos

Category 6

Welcome to Category 6. This is the collective home for Weather Underground's featured writeups by Dr. Jeff Masters (right), Bob Henson (left), Chris Burt, and other regular contributors.

Nearby

Air Quality

  Air Quality AQ Index Pollutant
Not available.

Snow Depth

Station Depth Elevation

Earthquake Activity

City Distance Mag. Time & Date
Minimum magnitude displayed is 2.5.

Coastal Water Temperatures

Place Temperature

Stations

Nearby Weather Stations

Station Location Temp. Windchill Dew Point Humidity Wind Precip. Elev Updated Type
                   

Watches & Warnings

Wind Chill Advisory
Issued: 8:53 AM EST Jan. 17, 2018 – National Weather Service

... Wind Chill Advisory in effect from 10 PM this evening to 10 am
EST Thursday...

* what... wind chills are forecast to range from the mid 20s to
mid 30s.

* Where... Glades, Hendry, Collier, inland and Metro Palm Beach,
and inland Broward counties.

* When... from 10 PM this evening to 10 am EST Thursday.

Precautionary/preparedness actions...

A Wind Chill Advisory means that cold air and the wind will
combine to create low wind chills. Frost bite and hypothermia can
occur if precautions are not taken. Make sure you wear a hat and
gloves.


Rag